createdAt,value
2023-05-13T00:01:39.729Z,0.2
2023-05-13T00:05:34.190Z,0.2
2023-05-13T00:09:34.016Z,206.61
2023-05-13T00:13:34.294Z,206.61
2023-05-13T00:17:33.782Z,206.61
2023-05-13T00:21:33.664Z,201.56
2023-05-13T00:25:33.965Z,201.56
2023-05-13T00:29:34.064Z,201.56
2023-05-13T00:33:34.246Z,0.19
2023-05-13T00:37:33.897Z,0.19
2023-05-13T00:41:33.939Z,0.19
2023-05-13T00:45:35.085Z,196.59
2023-05-13T00:49:34.336Z,0.19
2023-05-13T00:53:34.155Z,0.19
2023-05-13T00:57:33.354Z,196.59
2023-05-13T01:01:37.128Z,0.18
2023-05-13T01:05:34.009Z,0.18
2023-05-13T01:09:34.104Z,0.19
2023-05-13T01:13:33.626Z,0.18
2023-05-13T01:17:34.232Z,0.18
2023-05-13T01:21:34.351Z,0.18
2023-05-13T01:25:33.815Z,0.18
2023-05-13T01:29:33.582Z,0.18
2023-05-13T01:33:34.410Z,0.18
2023-05-13T01:37:34.158Z,0.18
2023-05-13T01:41:53.243Z,0.18
2023-05-13T01:45:33.346Z,0.18
2023-05-13T01:49:33.851Z,186.91
2023-05-13T01:53:33.804Z,186.91
2023-05-13T01:57:34.055Z,186.91
2023-05-13T02:01:38.693Z,0.17
2023-05-13T02:05:33.639Z,0.17
2023-05-13T02:09:34.024Z,0.17
2023-05-13T02:13:34.239Z,0.18
2023-05-13T02:17:34.183Z,0.18
2023-05-13T02:21:33.875Z,0.18
2023-05-13T02:25:34.099Z,0.18
2023-05-13T02:29:33.328Z,0.18
2023-05-13T02:33:33.871Z,0.18
2023-05-13T02:37:33.967Z,0.18
2023-05-13T02:41:34.174Z,0.18
2023-05-13T02:45:34.031Z,0.18
2023-05-13T02:49:33.731Z,0.18
2023-05-13T02:53:33.556Z,0.18
2023-05-13T02:57:34.013Z,0.18
2023-05-13T03:01:37.332Z,0.18
2023-05-13T03:05:33.448Z,0.18
2023-05-13T03:09:33.733Z,0.18
2023-05-13T03:13:34.180Z,0.18
2023-05-13T03:17:34.780Z,0.18
2023-05-13T03:21:34.608Z,0.18
2023-05-13T03:25:33.503Z,3.61
2023-05-13T03:29:33.664Z,3.61
2023-05-13T03:33:34.153Z,1.78
2023-05-13T03:37:33.443Z,0.93
2023-05-13T03:41:33.810Z,0.93
2023-05-13T03:45:33.815Z,670.31
2023-05-13T03:49:34.266Z,529.36
2023-05-13T03:53:34.287Z,529.36
2023-05-13T03:57:33.267Z,445.35
2023-05-13T04:01:36.564Z,0.37
2023-05-13T04:05:34.184Z,0.37
2023-05-13T04:09:33.835Z,356.22
2023-05-13T04:13:33.976Z,0.32
2023-05-13T04:17:34.506Z,0.32
2023-05-13T04:21:34.246Z,0.3
2023-05-13T04:25:33.541Z,0.3
2023-05-13T04:29:33.739Z,0.3
2023-05-13T04:33:34.278Z,0.3
2023-05-13T04:37:35.741Z,0.3
2023-05-13T04:41:33.722Z,0.3
2023-05-13T04:45:33.623Z,0.3
2023-05-13T04:49:36.052Z,0.3
2023-05-13T04:53:34.323Z,0.3
2023-05-13T04:57:33.430Z,0.3
2023-05-13T05:01:37.469Z,0.3
2023-05-13T05:05:33.520Z,0.3
2023-05-13T05:09:33.635Z,0.3
2023-05-13T05:13:33.908Z,0.3
2023-05-13T05:17:35.062Z,0.3
2023-05-13T05:21:36.940Z,0.3
2023-05-13T05:25:33.532Z,4.11
2023-05-13T05:29:33.540Z,5.24
2023-05-13T05:33:34.460Z,5.24
2023-05-13T05:37:36.083Z,5.24
2023-05-13T05:41:33.356Z,5.24
2023-05-13T05:45:33.631Z,5.24
2023-05-13T05:49:33.864Z,5.24
2023-05-13T05:53:33.752Z,5.24
2023-05-13T05:57:33.986Z,5.24
2023-05-13T06:01:36.715Z,5.24
2023-05-13T06:05:34.851Z,5.24
2023-05-13T06:09:34.423Z,5.24
2023-05-13T06:13:33.521Z,5.24
2023-05-13T06:17:34.314Z,5.24
2023-05-13T06:21:33.934Z,5.24
2023-05-13T06:25:33.914Z,5.24
2023-05-13T06:29:35.194Z,5.24
2023-05-13T06:33:47.964Z,13.44
2023-05-13T06:37:33.891Z,13.44
2023-05-13T06:41:33.854Z,13.44
2023-05-13T06:45:33.435Z,13.44
2023-05-13T06:49:34.366Z,13.44
2023-05-13T06:53:34.019Z,13.44
2023-05-13T06:57:50.534Z,13.44
2023-05-13T07:01:39.550Z,13.44
2023-05-13T07:05:34.528Z,13.44
2023-05-13T07:09:33.934Z,13.44
2023-05-13T07:13:34.125Z,13.44
2023-05-13T07:17:34.110Z,13.44
2023-05-13T07:21:33.984Z,13.44
2023-05-13T07:25:34.073Z,13.44
2023-05-13T07:29:34.322Z,13.44
2023-05-13T07:33:34.226Z,13.44
2023-05-13T07:37:34.161Z,13.44
2023-05-13T07:41:33.802Z,19.52
2023-05-13T07:45:34.115Z,4.41
2023-05-13T07:49:34.221Z,4.41
2023-05-13T07:53:33.853Z,1.81
2023-05-13T07:57:34.043Z,1.09
2023-05-13T08:01:38.174Z,1.09
2023-05-13T08:05:35.218Z,0.8
2023-05-13T08:09:33.857Z,0.64
2023-05-13T08:13:34.172Z,0.64
2023-05-13T08:17:34.512Z,0.56
2023-05-13T08:21:35.835Z,0.51
2023-05-13T08:25:34.613Z,0.51
2023-05-13T08:29:35.212Z,0.47
2023-05-13T08:33:33.725Z,472.2
2023-05-13T08:37:33.566Z,472.2
2023-05-13T08:41:33.881Z,0.43
2023-05-13T08:45:34.133Z,0.41
2023-05-13T08:49:34.192Z,0.41
2023-05-13T08:53:33.969Z,419.62
2023-05-13T08:57:34.404Z,0.39
2023-05-13T09:01:36.880Z,0.39
2023-05-13T09:05:37.757Z,0.37
2023-05-13T09:09:34.089Z,379.13
2023-05-13T09:13:33.299Z,379.13
2023-05-13T09:17:33.626Z,0.35
2023-05-13T09:21:33.695Z,371.38
2023-05-13T09:25:34.201Z,371.38
2023-05-13T09:29:34.618Z,363.75
2023-05-13T09:33:34.261Z,363.75
2023-05-13T09:37:36.655Z,363.75
2023-05-13T09:41:34.700Z,0.34
2023-05-13T09:45:33.583Z,348.81
2023-05-13T09:49:33.653Z,348.81
2023-05-13T09:53:33.511Z,0.32
2023-05-13T09:57:33.905Z,334.32
2023-05-13T10:01:54.955Z,334.32
2023-05-13T10:05:34.043Z,0.3
2023-05-13T10:13:34.294Z,313.38
2023-05-13T10:16:38.883Z,313.38
2023-05-13T10:19:34.425Z,313.38
2023-05-13T10:22:35.006Z,0.29
2023-05-13T10:23:33.882Z,306.61
2023-05-13T10:25:36.125Z,306.61
2023-05-13T10:27:34.038Z,306.61
2023-05-13T10:29:33.781Z,306.61
2023-05-13T10:31:35.966Z,306.61
2023-05-13T10:33:34.659Z,306.61
2023-05-13T10:35:35.405Z,306.61
2023-05-13T10:37:33.747Z,306.61
2023-05-13T10:39:33.567Z,306.61
2023-05-13T10:41:34.311Z,306.61
2023-05-13T10:43:33.659Z,306.61
2023-05-13T10:45:34.193Z,306.61
2023-05-13T10:47:34.381Z,0.29
2023-05-13T10:49:34.267Z,0.29
2023-05-13T10:51:34.497Z,0.29
2023-05-13T10:53:34.165Z,306.61
2023-05-13T10:55:34.593Z,306.61
2023-05-13T10:57:33.751Z,306.61
2023-05-13T10:59:33.556Z,0.29
2023-05-13T11:01:42.156Z,0.29
2023-05-13T11:03:38.434Z,0.29
2023-05-13T11:05:33.818Z,0.29
2023-05-13T11:07:33.945Z,0.29
2023-05-13T11:09:33.460Z,0.29
2023-05-13T11:11:34.218Z,313.38
2023-05-13T11:13:33.912Z,313.38
2023-05-13T11:15:34.028Z,313.38
2023-05-13T11:17:33.893Z,0.3
2023-05-13T11:19:34.401Z,0.3
2023-05-13T11:21:51.476Z,0.3
2023-05-13T11:23:33.919Z,0.3
2023-05-13T11:25:34.056Z,0.3
2023-05-13T11:27:34.009Z,0.3
2023-05-13T11:29:33.449Z,0.3
2023-05-13T11:31:34.487Z,0.3
2023-05-13T11:33:34.037Z,0.3
2023-05-13T11:35:34.007Z,0.3
2023-05-13T11:37:33.763Z,0.3
2023-05-13T11:39:34.355Z,0.3
2023-05-13T11:41:34.068Z,327.23
2023-05-13T11:43:34.867Z,327.23
2023-05-13T11:45:34.092Z,327.23
2023-05-13T11:47:33.817Z,570.16
2023-05-13T11:49:34.103Z,570.16
2023-05-13T11:51:33.585Z,570.16
2023-05-13T11:53:34.244Z,1.21
2023-05-13T11:55:34.163Z,1.21
2023-05-13T11:57:33.619Z,1.21
2023-05-13T11:59:45.258Z,1379.85
2023-05-13T12:01:37.264Z,1379.85
2023-05-13T12:03:35.515Z,1379.85
2023-05-13T12:05:34.825Z,1.25
2023-05-13T12:07:33.505Z,1.25
2023-05-13T12:09:34.410Z,1.25
2023-05-13T12:11:33.841Z,1.18
2023-05-13T12:13:34.066Z,1.18
2023-05-13T12:15:37.421Z,1.18
2023-05-13T12:17:33.575Z,1134.43
2023-05-13T12:19:34.443Z,1134.43
2023-05-13T12:21:34.996Z,1134.43
2023-05-13T12:23:37.214Z,894.16
2023-05-13T12:25:33.696Z,894.16
2023-05-13T12:27:34.652Z,894.16
2023-05-13T12:29:33.752Z,472.2
2023-05-13T12:31:34.460Z,472.2
2023-05-13T12:33:34.131Z,472.2
2023-05-13T12:35:34.627Z,371.38
2023-05-13T12:37:34.195Z,371.38
2023-05-13T12:39:35.521Z,371.38
2023-05-13T12:41:34.100Z,341.51
2023-05-13T12:43:33.526Z,341.51
2023-05-13T12:45:33.830Z,341.51
2023-05-13T12:47:34.507Z,320.25
2023-05-13T12:49:33.507Z,320.25
2023-05-13T12:51:36.659Z,320.25
2023-05-13T12:53:33.810Z,313.38
2023-05-13T12:55:34.023Z,313.38
2023-05-13T12:57:34.045Z,313.38
2023-05-13T12:59:33.541Z,0.29
2023-05-13T13:01:41.266Z,0.29
2023-05-13T13:03:36.421Z,0.29
2023-05-13T13:05:34.467Z,0.29
2023-05-13T13:07:33.900Z,0.29
2023-05-13T13:09:33.579Z,0.29
2023-05-13T13:11:34.237Z,0.28
2023-05-13T13:13:33.821Z,0.28
2023-05-13T13:15:33.808Z,0.28
2023-05-13T13:17:34.621Z,0.28
2023-05-13T13:19:36.725Z,0.28
2023-05-13T13:21:34.407Z,0.28
2023-05-13T13:23:33.756Z,0.28
2023-05-13T13:25:34.555Z,0.28
2023-05-13T13:27:33.985Z,0.28
2023-05-13T13:29:33.368Z,0.28
2023-05-13T13:31:34.188Z,0.28
2023-05-13T13:33:36.103Z,0.28
2023-05-13T13:35:34.601Z,0.27
2023-05-13T13:37:34.668Z,0.27
2023-05-13T13:39:34.173Z,0.27
2023-05-13T13:41:34.065Z,0.27
2023-05-13T13:43:42.730Z,0.27
2023-05-13T13:45:35.820Z,0.27
2023-05-13T13:47:34.320Z,0.27
2023-05-13T13:49:46.840Z,0.27
2023-05-13T13:51:35.774Z,0.27
2023-05-13T13:53:34.256Z,274.31
2023-05-13T13:55:33.960Z,274.31
2023-05-13T13:57:33.461Z,274.31
2023-05-13T13:59:33.918Z,0.26
2023-05-13T14:01:36.937Z,0.26
2023-05-13T14:03:35.717Z,0.26
2023-05-13T14:05:34.689Z,0.25
2023-05-13T14:07:33.280Z,0.25
2023-05-13T14:09:34.225Z,0.25
2023-05-13T14:11:34.033Z,274.31
2023-05-13T14:13:33.222Z,274.31
2023-05-13T14:15:33.972Z,274.31
2023-05-13T14:17:36.280Z,0.26
2023-05-13T14:19:34.731Z,0.26
2023-05-13T14:21:34.270Z,0.26
2023-05-13T14:23:33.600Z,0.25
2023-05-13T14:25:33.291Z,0.25
2023-05-13T14:27:33.869Z,0.25
2023-05-13T14:29:34.427Z,0.25
2023-05-13T14:31:34.263Z,0.25
2023-05-13T14:33:33.840Z,0.25
2023-05-13T14:35:34.187Z,0.25
2023-05-13T14:37:33.699Z,0.25
2023-05-13T14:39:34.183Z,0.25
2023-05-13T14:41:33.986Z,0.24
2023-05-13T14:43:33.153Z,0.24
2023-05-13T14:45:39.029Z,0.24
2023-05-13T14:47:34.255Z,0.24
2023-05-13T14:49:34.065Z,0.24
2023-05-13T14:51:34.004Z,0.24
2023-05-13T14:53:34.132Z,0.24
2023-05-13T14:55:33.860Z,0.24
2023-05-13T14:57:33.634Z,0.24
2023-05-13T14:59:34.275Z,250.25
2023-05-13T15:01:38.348Z,250.25
2023-05-13T15:03:34.849Z,250.25
2023-05-13T15:05:34.547Z,244.48
2023-05-13T15:07:33.744Z,244.48
2023-05-13T15:09:33.973Z,244.48
2023-05-13T15:11:33.965Z,0.22
2023-05-13T15:13:34.245Z,0.22
2023-05-13T15:15:34.002Z,0.22
2023-05-13T15:17:34.669Z,0.22
2023-05-13T15:19:34.244Z,0.22
2023-05-13T15:21:33.537Z,0.22
2023-05-13T15:23:34.140Z,0.21
2023-05-13T15:25:33.579Z,0.21
2023-05-13T15:27:34.140Z,0.21
2023-05-13T15:29:33.631Z,206.61
2023-05-13T15:31:34.256Z,206.61
2023-05-13T15:33:34.457Z,206.61
2023-05-13T15:35:33.904Z,196.59
2023-05-13T15:37:34.218Z,196.59
2023-05-13T15:39:36.612Z,196.59
2023-05-13T15:41:33.701Z,177.56
2023-05-13T15:43:34.027Z,177.56
2023-05-13T15:45:33.821Z,177.56
2023-05-13T15:47:36.887Z,173.01
2023-05-13T15:49:34.023Z,173.01
2023-05-13T15:51:33.790Z,173.01
2023-05-13T15:53:33.781Z,164.15
2023-05-13T15:55:33.968Z,164.15
2023-05-13T15:57:33.682Z,164.15
2023-05-13T15:59:33.520Z,159.84
2023-05-13T16:01:37.902Z,159.84
2023-05-13T16:03:35.038Z,159.84
2023-05-13T16:05:33.653Z,155.61
2023-05-13T16:07:34.090Z,155.61
2023-05-13T16:09:33.464Z,155.61
2023-05-13T16:11:34.804Z,0.14
2023-05-13T16:13:33.855Z,0.14
2023-05-13T16:15:33.250Z,0.14
2023-05-13T16:17:34.791Z,0.14
2023-05-13T16:19:34.842Z,0.14
2023-05-13T16:21:34.424Z,0.14
2023-05-13T16:23:33.609Z,0.14
2023-05-13T16:25:36.484Z,0.14
2023-05-13T16:27:33.800Z,0.14
2023-05-13T16:29:34.117Z,0.14
2023-05-13T16:31:34.197Z,0.14
2023-05-13T16:33:34.344Z,0.14
2023-05-13T16:35:34.134Z,0.14
2023-05-13T16:37:33.958Z,0.14
2023-05-13T16:39:34.079Z,0.14
2023-05-13T16:41:33.920Z,151.46
2023-05-13T16:43:38.451Z,151.46
2023-05-13T16:45:33.859Z,151.46
2023-05-13T16:47:34.760Z,0.15
2023-05-13T16:49:35.901Z,0.15
2023-05-13T16:51:34.767Z,0.15
2023-05-13T16:53:33.846Z,0.15
2023-05-13T16:55:34.275Z,0.15
2023-05-13T16:57:35.149Z,0.15
2023-05-13T16:59:33.861Z,159.84
2023-05-13T17:01:35.990Z,159.84
2023-05-13T17:03:35.672Z,159.84
2023-05-13T17:05:33.696Z,0.15
2023-05-13T17:07:34.258Z,0.15
2023-05-13T17:09:35.068Z,0.15
2023-05-13T17:11:34.523Z,0.16
2023-05-13T17:13:35.186Z,0.16
2023-05-13T17:15:34.241Z,0.16
2023-05-13T17:17:34.382Z,0.16
2023-05-13T17:19:34.262Z,0.16
2023-05-13T17:21:34.225Z,0.16
2023-05-13T17:23:34.103Z,0.17
2023-05-13T17:25:33.488Z,0.17
2023-05-13T17:27:36.350Z,0.17
2023-05-13T17:29:33.662Z,0.17
2023-05-13T17:31:34.066Z,0.17
2023-05-13T17:33:34.514Z,0.17
2023-05-13T17:35:33.947Z,186.91
2023-05-13T17:37:36.104Z,186.91
2023-05-13T17:39:33.647Z,186.91
2023-05-13T17:41:33.701Z,0.18
2023-05-13T17:43:33.871Z,0.18
2023-05-13T17:45:33.770Z,0.18
2023-05-13T17:47:34.513Z,0.18
2023-05-13T17:49:34.452Z,0.18
2023-05-13T17:51:33.787Z,0.18
2023-05-13T17:53:35.141Z,186.91
2023-05-13T17:55:33.760Z,186.91
2023-05-13T17:57:33.196Z,186.91
2023-05-13T17:59:34.184Z,186.91
2023-05-13T18:01:41.605Z,186.91
2023-05-13T18:03:34.728Z,186.91
2023-05-13T18:05:33.484Z,0.18
2023-05-13T18:07:34.060Z,0.18
2023-05-13T18:09:33.522Z,0.18
2023-05-13T18:11:34.281Z,0.18
2023-05-13T18:13:35.181Z,0.18
2023-05-13T18:15:33.886Z,0.18
2023-05-13T18:17:33.936Z,0.18
2023-05-13T18:19:34.377Z,0.18
2023-05-13T18:21:33.995Z,0.18
2023-05-13T18:23:34.269Z,196.59
2023-05-13T18:25:39.971Z,196.59
2023-05-13T18:27:33.347Z,196.59
2023-05-13T18:29:34.191Z,0.19
2023-05-13T18:31:34.319Z,0.19
2023-05-13T18:33:34.675Z,0.19
2023-05-13T18:35:33.834Z,0.2
2023-05-13T18:37:35.915Z,0.2
2023-05-13T18:39:33.909Z,0.2
2023-05-13T18:41:34.043Z,0.2
2023-05-13T18:43:33.904Z,0.2
2023-05-13T18:45:33.354Z,0.2
2023-05-13T18:47:34.522Z,211.75
2023-05-13T18:49:34.164Z,211.75
2023-05-13T18:51:33.776Z,211.75
2023-05-13T18:53:34.151Z,216.98
2023-05-13T18:55:33.724Z,216.98
2023-05-13T18:57:33.374Z,216.98
2023-05-13T18:59:34.084Z,0.21
2023-05-13T19:01:40.239Z,0.21
2023-05-13T19:03:35.857Z,0.21
2023-05-13T19:05:34.634Z,0.21
2023-05-13T19:07:33.361Z,0.21
2023-05-13T19:09:34.199Z,0.21
2023-05-13T19:11:38.122Z,0.21
2023-05-13T19:13:45.674Z,0.21
2023-05-13T19:15:33.850Z,0.21
2023-05-13T19:17:34.151Z,216.98
2023-05-13T19:19:34.977Z,216.98
2023-05-13T19:21:33.624Z,216.98
2023-05-13T19:23:33.977Z,0.21
2023-05-13T19:25:33.524Z,0.21
2023-05-13T19:27:35.851Z,0.21
2023-05-13T19:29:33.902Z,0.2
2023-05-13T19:31:34.564Z,0.2
2023-05-13T19:33:34.215Z,0.2
2023-05-13T19:35:33.515Z,0.19
2023-05-13T19:37:33.997Z,0.19
2023-05-13T19:39:33.692Z,0.19
2023-05-13T19:41:34.242Z,196.59
2023-05-13T19:43:33.639Z,196.59
2023-05-13T19:45:34.583Z,196.59
2023-05-13T19:47:34.210Z,196.59
2023-05-13T19:49:38.093Z,196.59
2023-05-13T19:51:34.296Z,196.59
2023-05-13T19:53:33.546Z,0.19
2023-05-13T19:55:34.130Z,0.19
2023-05-13T19:57:33.881Z,0.19
2023-05-13T19:59:33.417Z,0.19
2023-05-13T20:01:34.810Z,0.19
2023-05-13T20:03:34.710Z,0.19
2023-05-13T20:05:33.587Z,0.18
2023-05-13T20:07:33.734Z,0.18
2023-05-13T20:09:33.369Z,0.18
2023-05-13T20:11:34.540Z,0.18
2023-05-13T20:13:33.951Z,0.18
2023-05-13T20:15:33.368Z,0.18
2023-05-13T20:17:34.563Z,0.18
2023-05-13T20:19:34.409Z,0.18
2023-05-13T20:21:34.414Z,0.18
2023-05-13T20:23:36.838Z,0.18
2023-05-13T20:25:33.932Z,0.18
2023-05-13T20:27:33.726Z,0.18
2023-05-13T20:29:35.160Z,0.18
2023-05-13T20:31:34.927Z,0.18
2023-05-13T20:33:34.327Z,0.18
2023-05-13T20:35:33.859Z,0.18
2023-05-13T20:37:35.841Z,0.18
2023-05-13T20:39:33.749Z,0.18
2023-05-13T20:41:33.890Z,191.71
2023-05-13T20:43:33.947Z,191.71
2023-05-13T20:45:33.383Z,191.71
2023-05-13T20:47:34.281Z,186.91
2023-05-13T20:49:33.581Z,186.91
2023-05-13T20:51:34.252Z,186.91
2023-05-13T20:53:34.192Z,0.17
2023-05-13T20:55:34.227Z,0.17
2023-05-13T20:57:33.762Z,0.17
2023-05-13T20:59:33.423Z,177.56
2023-05-13T21:01:36.985Z,177.56
2023-05-13T21:03:34.560Z,177.56
2023-05-13T21:05:34.722Z,0.16
2023-05-13T21:07:33.198Z,0.16
2023-05-13T21:09:33.921Z,0.16
2023-05-13T21:11:34.069Z,168.54
2023-05-13T21:13:33.968Z,168.54
2023-05-13T21:15:36.662Z,168.54
2023-05-13T21:17:34.139Z,168.54
2023-05-13T21:19:34.200Z,168.54
2023-05-13T21:21:34.525Z,168.54
2023-05-13T21:23:33.804Z,173.01
2023-05-13T21:25:34.118Z,173.01
2023-05-13T21:27:33.653Z,173.01
2023-05-13T21:29:33.184Z,173.01
2023-05-13T21:31:34.402Z,173.01
2023-05-13T21:33:34.596Z,173.01
2023-05-13T21:35:33.871Z,0.17
2023-05-13T21:37:34.186Z,0.17
2023-05-13T21:39:44.571Z,0.17
2023-05-13T21:41:34.685Z,0.17
2023-05-13T21:43:33.901Z,0.17
2023-05-13T21:45:33.753Z,0.17
2023-05-13T21:47:34.010Z,0.17
2023-05-13T21:49:34.222Z,0.17
2023-05-13T21:51:34.355Z,0.17
2023-05-13T21:53:33.913Z,0.18
2023-05-13T21:55:34.566Z,0.18
2023-05-13T21:57:33.716Z,0.18
2023-05-13T21:59:34.407Z,0.18
2023-05-13T22:01:35.631Z,0.18
2023-05-13T22:03:35.477Z,0.18
2023-05-13T22:05:35.837Z,0.18
2023-05-13T22:07:33.925Z,0.18
2023-05-13T22:09:33.495Z,0.18
2023-05-13T22:11:34.628Z,0.18
2023-05-13T22:13:33.597Z,0.18
2023-05-13T22:15:34.110Z,0.18
2023-05-13T22:17:49.975Z,0.18
2023-05-13T22:19:35.639Z,0.18
2023-05-13T22:21:34.608Z,0.18
2023-05-13T22:23:33.231Z,191.71
2023-05-13T22:25:33.764Z,191.71
2023-05-13T22:27:33.356Z,191.71
2023-05-13T22:29:34.095Z,0.18
2023-05-13T22:31:34.022Z,0.18
2023-05-13T22:33:34.606Z,0.18
2023-05-13T22:35:33.451Z,0.19
2023-05-13T22:37:34.082Z,0.19
2023-05-13T22:39:33.870Z,0.19
2023-05-13T22:41:34.243Z,196.59
2023-05-13T22:43:33.904Z,196.59
2023-05-13T22:45:33.570Z,196.59
2023-05-13T22:47:34.756Z,0.19
2023-05-13T22:49:33.951Z,0.19
2023-05-13T22:51:34.783Z,0.19
2023-05-13T22:53:33.883Z,0.19
2023-05-13T22:55:33.537Z,0.19
2023-05-13T22:57:34.425Z,0.19
2023-05-13T22:59:34.070Z,0.19
2023-05-13T23:01:37.085Z,0.19
2023-05-13T23:03:33.714Z,0.19
2023-05-13T23:05:34.840Z,0.19
2023-05-13T23:07:33.914Z,0.19
2023-05-13T23:09:34.193Z,0.19
2023-05-13T23:11:34.260Z,196.59
2023-05-13T23:13:33.638Z,196.59
2023-05-13T23:15:34.229Z,196.59
2023-05-13T23:17:34.352Z,0.19
2023-05-13T23:19:34.797Z,0.19
2023-05-13T23:21:34.398Z,0.19
2023-05-13T23:23:33.554Z,196.59
2023-05-13T23:25:34.190Z,196.59
2023-05-13T23:27:33.858Z,196.59
2023-05-13T23:29:34.231Z,191.71
2023-05-13T23:31:34.591Z,191.71
2023-05-13T23:33:36.074Z,191.71
2023-05-13T23:35:34.167Z,191.71
2023-05-13T23:37:33.645Z,191.71
2023-05-13T23:39:34.034Z,191.71
2023-05-13T23:41:34.399Z,0.18
2023-05-13T23:43:33.762Z,0.18
2023-05-13T23:45:34.235Z,0.18
2023-05-13T23:47:33.943Z,0.18
2023-05-13T23:49:34.167Z,0.18
2023-05-13T23:51:34.276Z,0.18
2023-05-13T23:53:33.626Z,186.91
2023-05-13T23:55:34.312Z,186.91
2023-05-13T23:57:33.905Z,186.91
2023-05-13T23:59:33.322Z,0.17
